Bothell, Washington
Current Conditions -  °F | °C
As of 9:53 AM on Friday 19 Dec 2014 (Local Time) from KPAE Reporting Station
Few Clouds Few Clouds  
Wind Chill: 40°   Ceiling: Unl
Heat Index: 46°   Visibility: 10mi
Dew Point: 42°   Wind: 15mph
Humidity: 86%   Direction: 180°S
Pressure: 29.9"   Gusts: 23mph
Location:  47.76°N, 122.2°W
Report Text: KPAE 191753Z 18013G20KT 10SM FEW010 FEW016 08/06 A2990 RMK AO2 RAE1657 SLP126 P0001 60017 T00780056 10083 20067 53019
Loading
Personal Weather Stations






























Interactive Weather Map New forecast layout! Learn more

10-Day Weather Forecast

Advertisements
Track Severe Weather on mobile